Svitzer Sines — CSYI4 — position and weather

sailwx.info

Track history (hours):
 
Tides and Currents Weather Stations Pressure Air Temp Water Temp Dewpoint Dewpoint Depression Visibility Wind Speed Wind Dir Waves Ship Positions

Svitzer Sines

Last reported at 2016-Jun-26 13:33 UTC. Time now 2016-Jun-26 13:52 UTC.
Position N 38°42' W 009°10'.

Length 26 m; draft 4 m.

Type: Tug. MMSI: 263601890.

Date/timePositionNaut miles runAvg speedWind from/ knotsBaromVisibWave heightAir tempDewpointWater temp
2016-Jun-26 13:33N 38°42' W 009°10'0 0.0
2016-Jun-26 12:33N 38°42' W 009°10'0 0.0
2016-Jun-26 11:33N 38°42' W 009°10'0 0.0
2016-Jun-26 10:33N 38°42' W 009°10'0 0.0
2016-Jun-26 09:33N 38°42' W 009°10'0 0.0
2016-Jun-26 08:33N 38°42' W 009°10'0 0.1
2016-Jun-26 07:33N 38°42' W 009°10'0 0.1
2016-Jun-26 06:33N 38°42' W 009°10'0 0.0
2016-Jun-26 05:33N 38°42' W 009°10'0 0.0
2016-Jun-26 04:33N 38°42' W 009°10'0 0.0
2016-Jun-26 03:33N 38°42' W 009°10'4 3.9
2016-Jun-26 02:33N 38°41' W 009°05'3 2.7
2016-Jun-26 01:33N 38°41' W 009°08'1 1.3
2016-Jun-26 00:33N 38°42' W 009°10'0 0.0
2016-Jun-25 23:33N 38°42' W 009°10'0 0.0
2016-Jun-25 22:33N 38°42' W 009°10'0 0.0
2016-Jun-25 21:33N 38°42' W 009°10'0 0.0
2016-Jun-25 20:33N 38°42' W 009°10'0 0.0
2016-Jun-25 19:33N 38°42' W 009°10'0 0.0
2016-Jun-25 18:33N 38°42' W 009°10'0 0.0
2016-Jun-25 17:33N 38°42' W 009°10'0 0.0
2016-Jun-25 16:33N 38°42' W 009°10'0 0.0
2016-Jun-25 15:33N 38°42' W 009°10'0 0.0
2016-Jun-25 14:33N 38°42' W 009°10'0 0.0
2016-Jun-25 13:33N 38°42' W 009°10'0 0.0
2016-Jun-25 12:33N 38°42' W 009°10'0 0.0
2016-Jun-25 11:33N 38°42' W 009°10'0 0.0
2016-Jun-25 10:33N 38°42' W 009°10'0 0.0
2016-Jun-25 09:33N 38°42' W 009°10'0 0.0
2016-Jun-25 08:33N 38°42' W 009°10'0 0.0
2016-Jun-25 07:33N 38°42' W 009°10'0 0.0
2016-Jun-25 06:33N 38°42' W 009°10'0 0.0
2016-Jun-25 05:33N 38°42' W 009°10'0 0.0
2016-Jun-25 04:33N 38°42' W 009°10'0 0.0
2016-Jun-25 03:33N 38°42' W 009°10'0 0.0
2016-Jun-25 02:33N 38°42' W 009°10'0 0.0
2016-Jun-25 01:32N 38°42' W 009°10'0 0.0
2016-Jun-25 00:32N 38°42' W 009°10'0 0.0
2016-Jun-24 23:33N 38°42' W 009°10'0 0.0
2016-Jun-24 22:33N 38°42' W 009°10'0 0.0
2016-Jun-24 21:33N 38°42' W 009°10'0 0.0
2016-Jun-24 20:32N 38°42' W 009°10'0 0.0
2016-Jun-24 19:33N 38°42' W 009°10'0 0.0
2016-Jun-24 18:33N 38°42' W 009°10'0 0.0
2016-Jun-24 17:33N 38°42' W 009°10'0 0.0
2016-Jun-24 16:33N 38°42' W 009°10'0 0.0
2016-Jun-24 15:33N 38°42' W 009°10'0 0.0
2016-Jun-24 14:33N 38°42' W 009°10'3 3.3
2016-Jun-24 13:33N 38°44' W 009°06'3 3.0
2016-Jun-24 12:33N 38°42' W 009°09'0 0.5
2016-Jun-24 11:33N 38°42' W 009°10'0 0.0
2016-Jun-24 10:33N 38°42' W 009°10'0 0.0
2016-Jun-24 09:33N 38°42' W 009°10'0 0.0
2016-Jun-24 08:33N 38°42' W 009°10'0 0.0
2016-Jun-24 07:33N 38°42' W 009°10'0 0.0
2016-Jun-24 04:33N 38°42' W 009°09'0 0.1
2016-Jun-24 03:33N 38°42' W 009°10'0 0.0
2016-Jun-24 02:33N 38°42' W 009°10'0 0.0
2016-Jun-24 01:33N 38°42' W 009°10'0 0.0
2016-Jun-24 00:33N 38°42' W 009°10'0 0.0
2016-Jun-23 23:33N 38°42' W 009°10'0 0.0
2016-Jun-23 22:33N 38°42' W 009°10'0 0.0
2016-Jun-23 21:33N 38°42' W 009°10'0 0.0
2016-Jun-23 20:33N 38°42' W 009°10'0 0.0
2016-Jun-23 19:33N 38°42' W 009°10'0 0.0
2016-Jun-23 18:33N 38°42' W 009°10'0 0.0
2016-Jun-23 17:33N 38°42' W 009°10'0 0.0
2016-Jun-23 16:33N 38°42' W 009°10'2 2.4
2016-Jun-23 15:33N 38°43' W 009°07'1 0.7
2016-Jun-23 14:32N 38°43' W 009°06'3 2.9
2016-Jun-23 13:33N 38°42' W 009°10'0 0.0
2016-Jun-23 12:33N 38°42' W 009°10'0 0.0
2016-Jun-23 11:33N 38°42' W 009°10'0 0.0
2016-Jun-23 10:33N 38°42' W 009°10'0 0.0
2016-Jun-23 09:33N 38°42' W 009°10'6 6.2
2016-Jun-23 08:33N 38°41' W 009°17'7 7.2
2016-Jun-23 07:33N 38°35' W 009°22'19 9.7
2016-Jun-23 05:33N 38°15' W 009°22'10 9.6
2016-Jun-23 04:32N 38°06' W 009°22'11 9.2
2016-Jun-23 03:21N 37°55' W 009°21'7 9.0
2016-Jun-23 02:33N 37°48' W 009°21'10 8.9
2016-Jun-23 01:24N 37°37' W 009°21'8 9.1
2016-Jun-23 00:32N 37°29' W 009°21'45 4.9
2016-Jun-22 15:18N 37°05' W 008°33'3 3.7
2016-Jun-22 14:33N 37°08' W 008°32'0 0.0
2016-Jun-22 13:33N 37°08' W 008°32'0 0.0
2016-Jun-22 12:33N 37°08' W 008°32'0 0.0
2016-Jun-22 11:33N 37°08' W 008°32'0 0.0
2016-Jun-22 10:33N 37°08' W 008°32'0 0.0
2016-Jun-22 09:33N 37°08' W 008°32'0 0.0
2016-Jun-22 08:33N 37°08' W 008°32'0 0.0
2016-Jun-22 07:33N 37°08' W 008°32'0 0.0
2016-Jun-22 06:33N 37°08' W 008°32'0 0.0
2016-Jun-22 05:33N 37°08' W 008°32'2 2.0
2016-Jun-22 04:32N 37°06' W 008°32'0 0.2
2016-Jun-22 03:33N 37°06' W 008°32'0 0.3
2016-Jun-22 02:33N 37°06' W 008°32'1 0.5
2016-Jun-22 01:33N 37°06' W 008°33'21 8.9
2016-Jun-21 23:13N 36°52' W 008°53'5 8.2
2016-Jun-21 22:33N 36°49' W 008°59'8 8.4
2016-Jun-21 21:33N 36°53' W 009°08'9 9.0
2016-Jun-21 20:33N 37°02' W 009°12'10 9.7
2016-Jun-21 19:33N 37°11' W 009°14'10 9.5
2016-Jun-21 18:33N 37°21' W 009°15'9 9.1
2016-Jun-21 17:33N 37°30' W 009°16'10 9.5
2016-Jun-21 16:33N 37°39' W 009°17'10 9.7
2016-Jun-21 15:33N 37°49' W 009°18'10 9.8
2016-Jun-21 14:33N 37°59' W 009°19'10 9.8
2016-Jun-21 13:33N 38°08' W 009°20'9 9.5
2016-Jun-21 12:33N 38°18' W 009°21'10 9.6
2016-Jun-21 11:33N 38°27' W 009°22'9 9.4
2016-Jun-21 10:33N 38°37' W 009°22'1010.0
2016-Jun-21 09:33N 38°41' W 009°11'1 1.4
2016-Jun-21 08:33N 38°42' W 009°10'0 0.0
2016-Jun-21 07:33N 38°42' W 009°10'0 0.0
2016-Jun-21 05:33N 38°42' W 009°10'0 0.0
2016-Jun-21 04:33N 38°42' W 009°10'0 0.0
2016-Jun-21 03:33N 38°42' W 009°10'0 0.0
2016-Jun-21 02:33N 38°42' W 009°10'0 0.0
2016-Jun-21 01:33N 38°42' W 009°10'3 3.1
2016-Jun-21 00:33N 38°41' W 009°06'1 0.9
2016-Jun-20 23:33N 38°41' W 009°07'2 2.3
2016-Jun-20 22:33N 38°42' W 009°10'1 1.4
2016-Jun-20 21:33N 38°42' W 009°08'0 0.2
2016-Jun-20 20:33N 38°42' W 009°08'1 1.2
2016-Jun-20 19:33N 38°42' W 009°10'0 0.0
2016-Jun-20 18:33N 38°42' W 009°10'0 0.0
2016-Jun-20 17:33N 38°42' W 009°10'0 0.0
2016-Jun-20 16:33N 38°42' W 009°10'0 0.0
2016-Jun-20 15:33N 38°42' W 009°10'0 0.0
2016-Jun-20 14:33N 38°42' W 009°10'0 0.0
2016-Jun-20 13:33N 38°42' W 009°10'0 0.0
2016-Jun-20 12:33N 38°42' W 009°10'0 0.0
2016-Jun-20 11:33N 38°42' W 009°10'0 0.0
2016-Jun-20 10:33N 38°42' W 009°10'0 0.0
2016-Jun-20 09:33N 38°42' W 009°10'0 0.0
2016-Jun-20 08:33N 38°42' W 009°10'0 0.0
2016-Jun-20 07:33N 38°42' W 009°10'0 0.0
2016-Jun-20 06:33N 38°42' W 009°10'0 0.0
2016-Jun-20 05:33N 38°42' W 009°10'0 0.0
2016-Jun-20 04:33N 38°42' W 009°10'0 0.0
2016-Jun-20 03:33N 38°42' W 009°10'0 0.0
2016-Jun-20 02:33N 38°42' W 009°10'0 0.0
2016-Jun-20 01:33N 38°42' W 009°10'0 0.0
2016-Jun-20 00:33N 38°42' W 009°10'0 0.0
2016-Jun-19 23:33N 38°42' W 009°10'0 0.0
2016-Jun-19 22:33N 38°42' W 009°10'0 0.0
2016-Jun-19 21:33N 38°42' W 009°10'0 0.0
2016-Jun-19 20:33N 38°42' W 009°10'0 0.0
2016-Jun-19 19:33N 38°42' W 009°10'0 0.0
2016-Jun-19 18:33N 38°42' W 009°10'0 0.0
2016-Jun-19 17:33N 38°42' W 009°10'0 0.0
2016-Jun-19 16:33N 38°42' W 009°10'0 0.0
2016-Jun-19 15:33N 38°42' W 009°10'0 0.0
2016-Jun-19 14:33N 38°42' W 009°10'0 0.0
2016-Jun-19 13:33N 38°42' W 009°10'0 0.0
2016-Jun-19 12:33N 38°42' W 009°10'0 0.0
2016-Jun-19 11:33N 38°42' W 009°10'0 0.0
2016-Jun-19 10:33N 38°42' W 009°10'0 0.0
2016-Jun-19 09:33N 38°42' W 009°10'0 0.0
2016-Jun-19 08:33N 38°42' W 009°10'0 0.0
2016-Jun-19 07:33N 38°42' W 009°10'0 0.0
2016-Jun-19 06:33N 38°42' W 009°10'0 0.0
2016-Jun-19 05:33N 38°42' W 009°10'0 0.0
2016-Jun-19 04:33N 38°42' W 009°10'0 0.0
2016-Jun-19 03:33N 38°42' W 009°10'0 0.0
2016-Jun-19 02:33N 38°42' W 009°10'0 0.0
2016-Jun-19 01:32N 38°42' W 009°10'0 0.0
2016-Jun-19 00:33N 38°42' W 009°10'0 0.0
2016-Jun-18 23:33N 38°42' W 009°10'0 0.0
2016-Jun-18 22:33N 38°42' W 009°10'0 0.0
2016-Jun-18 21:33N 38°42' W 009°10'0 0.0
2016-Jun-18 20:33N 38°42' W 009°10'0 0.0
2016-Jun-18 19:33N 38°42' W 009°10'0 0.0
2016-Jun-18 18:33N 38°42' W 009°10'2 1.8
2016-Jun-18 17:33N 38°42' W 009°07'2 1.8
2016-Jun-18 16:33N 38°42' W 009°10'0 0.0
2016-Jun-18 15:33N 38°42' W 009°10'0 0.0
2016-Jun-18 14:33N 38°42' W 009°10'3 2.9
2016-Jun-18 13:33N 38°43' W 009°06'7 6.9
2016-Jun-18 12:33N 38°41' W 009°14'3 3.0
2016-Jun-18 11:33N 38°42' W 009°11'1 0.9
2016-Jun-18 10:33N 38°42' W 009°10'0 0.0
2016-Jun-18 09:33N 38°42' W 009°10'0 0.0
2016-Jun-18 08:33N 38°42' W 009°10'0 0.0
2016-Jun-18 07:33N 38°42' W 009°10'0 0.0
2016-Jun-18 06:33N 38°42' W 009°10'0 0.0
2016-Jun-18 05:33N 38°42' W 009°10'0 0.0
2016-Jun-18 04:33N 38°42' W 009°10'0 0.0
2016-Jun-18 03:33N 38°42' W 009°10'0 0.0
2016-Jun-18 02:33N 38°42' W 009°10'0 0.0
2016-Jun-18 01:33N 38°42' W 009°10'0 0.0
2016-Jun-18 00:33N 38°42' W 009°10'0 0.0
2016-Jun-17 23:33N 38°42' W 009°10'0 0.0
2016-Jun-17 22:33N 38°42' W 009°10'0 0.0
2016-Jun-17 21:33N 38°42' W 009°10'4 4.0
2016-Jun-17 20:33N 38°41' W 009°14'4 4.0
2016-Jun-17 19:33N 38°42' W 009°10'0 0.0
2016-Jun-17 18:33N 38°42' W 009°10'0 0.0
2016-Jun-17 17:33N 38°42' W 009°10'0 0.0
2016-Jun-17 16:33N 38°42' W 009°10'0 0.0
2016-Jun-17 15:33N 38°42' W 009°10'0 0.0
2016-Jun-17 14:33N 38°42' W 009°10'0 0.0
2016-Jun-17 13:33N 38°42' W 009°10'0 0.0
2016-Jun-17 12:33N 38°42' W 009°10'0 0.0
2016-Jun-17 11:33N 38°42' W 009°10'0 0.0
2016-Jun-17 10:33N 38°42' W 009°10'0 0.0
2016-Jun-17 09:32N 38°42' W 009°10'0 0.0
2016-Jun-17 08:33N 38°42' W 009°10'1 0.7
2016-Jun-17 07:33N 38°42' W 009°10'2 2.1
2016-Jun-17 06:33N 38°40' W 009°09'2 2.1
2016-Jun-17 05:33N 38°42' W 009°10'0 0.0
2016-Jun-17 04:33N 38°42' W 009°10'0 0.0
2016-Jun-17 03:33N 38°42' W 009°10'0 0.0
2016-Jun-17 02:33N 38°42' W 009°10'0 0.0
2016-Jun-17 01:33N 38°42' W 009°10'0 0.0
2016-Jun-17 00:33N 38°42' W 009°10'0 0.0
2016-Jun-16 23:33N 38°42' W 009°10'0 0.0
2016-Jun-16 22:33N 38°42' W 009°10'0 0.0
2016-Jun-16 21:33N 38°42' W 009°10'0 0.0
2016-Jun-16 20:33N 38°42' W 009°10'0 0.0
2016-Jun-16 19:33N 38°42' W 009°10'0 0.0
2016-Jun-16 18:33N 38°42' W 009°10'0 0.0
2016-Jun-16 17:33N 38°42' W 009°10'0 0.0
2016-Jun-16 16:33N 38°42' W 009°10'0 0.0
2016-Jun-16 15:33N 38°42' W 009°10'0 0.5
2016-Jun-16 14:33N 38°42' W 009°09'  
Track history (hours):
 
Tides and Currents Weather Stations Pressure Air Temp Water Temp Dewpoint Dewpoint Depression Visibility Wind Speed Wind Dir Waves Ship Positions

Svitzer Sines

Last reported at 2016-Jun-26 13:33 UTC. Time now 2016-Jun-26 13:52 UTC.
Position N 38°42' W 009°10'.

Length 26 m; draft 4 m.

Type: Tug. MMSI: 263601890.

Date/timePositionNaut miles runAvg speedWind from/ knotsBaromVisibWave heightAir tempDewpointWater temp
2016-Jun-26 13:33N 38°42' W 009°10'0 0.0
2016-Jun-26 12:33N 38°42' W 009°10'0 0.0
2016-Jun-26 11:33N 38°42' W 009°10'0 0.0
2016-Jun-26 10:33N 38°42' W 009°10'0 0.0
2016-Jun-26 09:33N 38°42' W 009°10'0 0.0
2016-Jun-26 08:33N 38°42' W 009°10'0 0.1
2016-Jun-26 07:33N 38°42' W 009°10'0 0.1
2016-Jun-26 06:33N 38°42' W 009°10'0 0.0
2016-Jun-26 05:33N 38°42' W 009°10'0 0.0
2016-Jun-26 04:33N 38°42' W 009°10'0 0.0
2016-Jun-26 03:33N 38°42' W 009°10'4 3.9
2016-Jun-26 02:33N 38°41' W 009°05'3 2.7
2016-Jun-26 01:33N 38°41' W 009°08'1 1.3
2016-Jun-26 00:33N 38°42' W 009°10'0 0.0
2016-Jun-25 23:33N 38°42' W 009°10'0 0.0
2016-Jun-25 22:33N 38°42' W 009°10'0 0.0
2016-Jun-25 21:33N 38°42' W 009°10'0 0.0
2016-Jun-25 20:33N 38°42' W 009°10'0 0.0
2016-Jun-25 19:33N 38°42' W 009°10'0 0.0
2016-Jun-25 18:33N 38°42' W 009°10'0 0.0
2016-Jun-25 17:33N 38°42' W 009°10'0 0.0
2016-Jun-25 16:33N 38°42' W 009°10'0 0.0
2016-Jun-25 15:33N 38°42' W 009°10'0 0.0
2016-Jun-25 14:33N 38°42' W 009°10'0 0.0
2016-Jun-25 13:33N 38°42' W 009°10'0 0.0
2016-Jun-25 12:33N 38°42' W 009°10'0 0.0
2016-Jun-25 11:33N 38°42' W 009°10'0 0.0
2016-Jun-25 10:33N 38°42' W 009°10'0 0.0
2016-Jun-25 09:33N 38°42' W 009°10'0 0.0
2016-Jun-25 08:33N 38°42' W 009°10'0 0.0
2016-Jun-25 07:33N 38°42' W 009°10'0 0.0
2016-Jun-25 06:33N 38°42' W 009°10'0 0.0
2016-Jun-25 05:33N 38°42' W 009°10'0 0.0
2016-Jun-25 04:33N 38°42' W 009°10'0 0.0
2016-Jun-25 03:33N 38°42' W 009°10'0 0.0
2016-Jun-25 02:33N 38°42' W 009°10'0 0.0
2016-Jun-25 01:32N 38°42' W 009°10'0 0.0
2016-Jun-25 00:32N 38°42' W 009°10'0 0.0
2016-Jun-24 23:33N 38°42' W 009°10'0 0.0
2016-Jun-24 22:33N 38°42' W 009°10'0 0.0
2016-Jun-24 21:33N 38°42' W 009°10'0 0.0
2016-Jun-24 20:32N 38°42' W 009°10'0 0.0
2016-Jun-24 19:33N 38°42' W 009°10'0 0.0
2016-Jun-24 18:33N 38°42' W 009°10'0 0.0
2016-Jun-24 17:33N 38°42' W 009°10'0 0.0
2016-Jun-24 16:33N 38°42' W 009°10'0 0.0
2016-Jun-24 15:33N 38°42' W 009°10'0 0.0
2016-Jun-24 14:33N 38°42' W 009°10'3 3.3
2016-Jun-24 13:33N 38°44' W 009°06'3 3.0
2016-Jun-24 12:33N 38°42' W 009°09'0 0.5
2016-Jun-24 11:33N 38°42' W 009°10'0 0.0
2016-Jun-24 10:33N 38°42' W 009°10'0 0.0
2016-Jun-24 09:33N 38°42' W 009°10'0 0.0
2016-Jun-24 08:33N 38°42' W 009°10'0 0.0
2016-Jun-24 07:33N 38°42' W 009°10'0 0.0
2016-Jun-24 04:33N 38°42' W 009°09'0 0.1
2016-Jun-24 03:33N 38°42' W 009°10'0 0.0
2016-Jun-24 02:33N 38°42' W 009°10'0 0.0
2016-Jun-24 01:33N 38°42' W 009°10'0 0.0
2016-Jun-24 00:33N 38°42' W 009°10'0 0.0
2016-Jun-23 23:33N 38°42' W 009°10'0 0.0
2016-Jun-23 22:33N 38°42' W 009°10'0 0.0
2016-Jun-23 21:33N 38°42' W 009°10'0 0.0
2016-Jun-23 20:33N 38°42' W 009°10'0 0.0
2016-Jun-23 19:33N 38°42' W 009°10'0 0.0
2016-Jun-23 18:33N 38°42' W 009°10'0 0.0
2016-Jun-23 17:33N 38°42' W 009°10'0 0.0
2016-Jun-23 16:33N 38°42' W 009°10'2 2.4
2016-Jun-23 15:33N 38°43' W 009°07'1 0.7
2016-Jun-23 14:32N 38°43' W 009°06'3 2.9
2016-Jun-23 13:33N 38°42' W 009°10'0 0.0
2016-Jun-23 12:33N 38°42' W 009°10'0 0.0
2016-Jun-23 11:33N 38°42' W 009°10'0 0.0
2016-Jun-23 10:33N 38°42' W 009°10'0 0.0
2016-Jun-23 09:33N 38°42' W 009°10'6 6.2
2016-Jun-23 08:33N 38°41' W 009°17'7 7.2
2016-Jun-23 07:33N 38°35' W 009°22'19 9.7
2016-Jun-23 05:33N 38°15' W 009°22'10 9.6
2016-Jun-23 04:32N 38°06' W 009°22'11 9.2
2016-Jun-23 03:21N 37°55' W 009°21'7 9.0
2016-Jun-23 02:33N 37°48' W 009°21'10 8.9
2016-Jun-23 01:24N 37°37' W 009°21'8 9.1
2016-Jun-23 00:32N 37°29' W 009°21'45 4.9
2016-Jun-22 15:18N 37°05' W 008°33'3 3.7
2016-Jun-22 14:33N 37°08' W 008°32'0 0.0
2016-Jun-22 13:33N 37°08' W 008°32'0 0.0
2016-Jun-22 12:33N 37°08' W 008°32'0 0.0
2016-Jun-22 11:33N 37°08' W 008°32'0 0.0
2016-Jun-22 10:33N 37°08' W 008°32'0 0.0
2016-Jun-22 09:33N 37°08' W 008°32'0 0.0
2016-Jun-22 08:33N 37°08' W 008°32'0 0.0
2016-Jun-22 07:33N 37°08' W 008°32'0 0.0
2016-Jun-22 06:33N 37°08' W 008°32'0 0.0
2016-Jun-22 05:33N 37°08' W 008°32'2 2.0
2016-Jun-22 04:32N 37°06' W 008°32'0 0.2
2016-Jun-22 03:33N 37°06' W 008°32'0 0.3
2016-Jun-22 02:33N 37°06' W 008°32'1 0.5
2016-Jun-22 01:33N 37°06' W 008°33'21 8.9
2016-Jun-21 23:13N 36°52' W 008°53'5 8.2
2016-Jun-21 22:33N 36°49' W 008°59'8 8.4
2016-Jun-21 21:33N 36°53' W 009°08'9 9.0
2016-Jun-21 20:33N 37°02' W 009°12'10 9.7
2016-Jun-21 19:33N 37°11' W 009°14'10 9.5
2016-Jun-21 18:33N 37°21' W 009°15'9 9.1
2016-Jun-21 17:33N 37°30' W 009°16'10 9.5
2016-Jun-21 16:33N 37°39' W 009°17'10 9.7
2016-Jun-21 15:33N 37°49' W 009°18'10 9.8
2016-Jun-21 14:33N 37°59' W 009°19'10 9.8
2016-Jun-21 13:33N 38°08' W 009°20'9 9.5
2016-Jun-21 12:33N 38°18' W 009°21'10 9.6
2016-Jun-21 11:33N 38°27' W 009°22'9 9.4
2016-Jun-21 10:33N 38°37' W 009°22'1010.0
2016-Jun-21 09:33N 38°41' W 009°11'1 1.4
2016-Jun-21 08:33N 38°42' W 009°10'0 0.0
2016-Jun-21 07:33N 38°42' W 009°10'0 0.0
2016-Jun-21 05:33N 38°42' W 009°10'0 0.0
2016-Jun-21 04:33N 38°42' W 009°10'0 0.0
2016-Jun-21 03:33N 38°42' W 009°10'0 0.0
2016-Jun-21 02:33N 38°42' W 009°10'0 0.0
2016-Jun-21 01:33N 38°42' W 009°10'3 3.1
2016-Jun-21 00:33N 38°41' W 009°06'1 0.9
2016-Jun-20 23:33N 38°41' W 009°07'2 2.3
2016-Jun-20 22:33N 38°42' W 009°10'1 1.4
2016-Jun-20 21:33N 38°42' W 009°08'0 0.2
2016-Jun-20 20:33N 38°42' W 009°08'1 1.2
2016-Jun-20 19:33N 38°42' W 009°10'0 0.0
2016-Jun-20 18:33N 38°42' W 009°10'0 0.0
2016-Jun-20 17:33N 38°42' W 009°10'0 0.0
2016-Jun-20 16:33N 38°42' W 009°10'0 0.0
2016-Jun-20 15:33N 38°42' W 009°10'0 0.0
2016-Jun-20 14:33N 38°42' W 009°10'0 0.0
2016-Jun-20 13:33N 38°42' W 009°10'0 0.0
2016-Jun-20 12:33N 38°42' W 009°10'0 0.0
2016-Jun-20 11:33N 38°42' W 009°10'0 0.0
2016-Jun-20 10:33N 38°42' W 009°10'0 0.0
2016-Jun-20 09:33N 38°42' W 009°10'0 0.0
2016-Jun-20 08:33N 38°42' W 009°10'0 0.0
2016-Jun-20 07:33N 38°42' W 009°10'0 0.0
2016-Jun-20 06:33N 38°42' W 009°10'0 0.0
2016-Jun-20 05:33N 38°42' W 009°10'0 0.0
2016-Jun-20 04:33N 38°42' W 009°10'0 0.0
2016-Jun-20 03:33N 38°42' W 009°10'0 0.0
2016-Jun-20 02:33N 38°42' W 009°10'0 0.0
2016-Jun-20 01:33N 38°42' W 009°10'0 0.0
2016-Jun-20 00:33N 38°42' W 009°10'0 0.0
2016-Jun-19 23:33N 38°42' W 009°10'0 0.0
2016-Jun-19 22:33N 38°42' W 009°10'0 0.0
2016-Jun-19 21:33N 38°42' W 009°10'0 0.0
2016-Jun-19 20:33N 38°42' W 009°10'0 0.0
2016-Jun-19 19:33N 38°42' W 009°10'0 0.0
2016-Jun-19 18:33N 38°42' W 009°10'0 0.0
2016-Jun-19 17:33N 38°42' W 009°10'0 0.0
2016-Jun-19 16:33N 38°42' W 009°10'0 0.0
2016-Jun-19 15:33N 38°42' W 009°10'0 0.0
2016-Jun-19 14:33N 38°42' W 009°10'0 0.0
2016-Jun-19 13:33N 38°42' W 009°10'0 0.0
2016-Jun-19 12:33N 38°42' W 009°10'0 0.0
2016-Jun-19 11:33N 38°42' W 009°10'0 0.0
2016-Jun-19 10:33N 38°42' W 009°10'0 0.0
2016-Jun-19 09:33N 38°42' W 009°10'0 0.0
2016-Jun-19 08:33N 38°42' W 009°10'0 0.0
2016-Jun-19 07:33N 38°42' W 009°10'0 0.0
2016-Jun-19 06:33N 38°42' W 009°10'0 0.0
2016-Jun-19 05:33N 38°42' W 009°10'0 0.0
2016-Jun-19 04:33N 38°42' W 009°10'0 0.0
2016-Jun-19 03:33N 38°42' W 009°10'0 0.0
2016-Jun-19 02:33N 38°42' W 009°10'0 0.0
2016-Jun-19 01:32N 38°42' W 009°10'0 0.0
2016-Jun-19 00:33N 38°42' W 009°10'0 0.0
2016-Jun-18 23:33N 38°42' W 009°10'0 0.0
2016-Jun-18 22:33N 38°42' W 009°10'0 0.0
2016-Jun-18 21:33N 38°42' W 009°10'0 0.0
2016-Jun-18 20:33N 38°42' W 009°10'0 0.0
2016-Jun-18 19:33N 38°42' W 009°10'0 0.0
2016-Jun-18 18:33N 38°42' W 009°10'2 1.8
2016-Jun-18 17:33N 38°42' W 009°07'2 1.8
2016-Jun-18 16:33N 38°42' W 009°10'0 0.0
2016-Jun-18 15:33N 38°42' W 009°10'0 0.0
2016-Jun-18 14:33N 38°42' W 009°10'3 2.9
2016-Jun-18 13:33N 38°43' W 009°06'7 6.9
2016-Jun-18 12:33N 38°41' W 009°14'3 3.0
2016-Jun-18 11:33N 38°42' W 009°11'1 0.9
2016-Jun-18 10:33N 38°42' W 009°10'0 0.0
2016-Jun-18 09:33N 38°42' W 009°10'0 0.0
2016-Jun-18 08:33N 38°42' W 009°10'0 0.0
2016-Jun-18 07:33N 38°42' W 009°10'0 0.0
2016-Jun-18 06:33N 38°42' W 009°10'0 0.0
2016-Jun-18 05:33N 38°42' W 009°10'0 0.0
2016-Jun-18 04:33N 38°42' W 009°10'0 0.0
2016-Jun-18 03:33N 38°42' W 009°10'0 0.0
2016-Jun-18 02:33N 38°42' W 009°10'0 0.0
2016-Jun-18 01:33N 38°42' W 009°10'0 0.0
2016-Jun-18 00:33N 38°42' W 009°10'0 0.0
2016-Jun-17 23:33N 38°42' W 009°10'0 0.0
2016-Jun-17 22:33N 38°42' W 009°10'0 0.0
2016-Jun-17 21:33N 38°42' W 009°10'4 4.0
2016-Jun-17 20:33N 38°41' W 009°14'4 4.0
2016-Jun-17 19:33N 38°42' W 009°10'0 0.0
2016-Jun-17 18:33N 38°42' W 009°10'0 0.0
2016-Jun-17 17:33N 38°42' W 009°10'0 0.0
2016-Jun-17 16:33N 38°42' W 009°10'0 0.0
2016-Jun-17 15:33N 38°42' W 009°10'0 0.0
2016-Jun-17 14:33N 38°42' W 009°10'0 0.0
2016-Jun-17 13:33N 38°42' W 009°10'0 0.0
2016-Jun-17 12:33N 38°42' W 009°10'0 0.0
2016-Jun-17 11:33N 38°42' W 009°10'0 0.0
2016-Jun-17 10:33N 38°42' W 009°10'0 0.0
2016-Jun-17 09:32N 38°42' W 009°10'0 0.0
2016-Jun-17 08:33N 38°42' W 009°10'1 0.7
2016-Jun-17 07:33N 38°42' W 009°10'2 2.1
2016-Jun-17 06:33N 38°40' W 009°09'2 2.1
2016-Jun-17 05:33N 38°42' W 009°10'0 0.0
2016-Jun-17 04:33N 38°42' W 009°10'0 0.0
2016-Jun-17 03:33N 38°42' W 009°10'0 0.0
2016-Jun-17 02:33N 38°42' W 009°10'0 0.0
2016-Jun-17 01:33N 38°42' W 009°10'0 0.0
2016-Jun-17 00:33N 38°42' W 009°10'0 0.0
2016-Jun-16 23:33N 38°42' W 009°10'0 0.0
2016-Jun-16 22:33N 38°42' W 009°10'0 0.0
2016-Jun-16 21:33N 38°42' W 009°10'0 0.0
2016-Jun-16 20:33N 38°42' W 009°10'0 0.0
2016-Jun-16 19:33N 38°42' W 009°10'0 0.0
2016-Jun-16 18:33N 38°42' W 009°10'0 0.0
2016-Jun-16 17:33N 38°42' W 009°10'0 0.0
2016-Jun-16 16:33N 38°42' W 009°10'0 0.0
2016-Jun-16 15:33N 38°42' W 009°10'0 0.5
2016-Jun-16 14:33N 38°42' W 009°09'  

Dump ship's entire track history